Terminal Aerodrome Forecast
Issued by NWS Newport/Morehead City, NC

Home | Current Version | Previous Version | Text Only | Print | Product List | Glossary Off
Versions: 1 2 3 4 5 6 7 8 9 10 11 12 13 14

000
FTUS42 KMHX 271700
TAFEWN
TAF
KEWN 271737Z 2718/2818 33012G20KT P6SM OVC025
     FM272000 33008G15KT P6SM OVC035
     FM272300 34006KT P6SM SCT040
     FM281400 34010G17KT P6SM SKC=

USA.gov is the U.S. government's official web portal to all federal, state and local government web resources and services.